Salina, KS (67401)

13:48 CDT le 04 septembre 2015 (GMT -0500)
Central Salina | | Change Station
CLOSE
Current Station
Stations météorologiques personnelles
Location: Salina, KS
Altitude: 1243 ft
Stations météo à proximité

Alt. 1243 ft 38.82 °N, 97.62 °W | Updated 11 seconds ago

Ciel dégagé
Ciel dégagé
94.1 ° F
Paraît 93 ° F
N
16.0
Vent Variable Vent de SSE
Gusts 17.0 mph

Aujourd'hui
Haut(e) -- | Bas -- ° F
--% Risque de précip.
Hier
Haut(e) -- | Bas -- ° F
Precip. -- pouce
7:02 AM 7:56 PM
Lune gibbeuse décroissante, 57% visible
Pression 29.86 pouce
Visibilité 10.0 Miles terrestres
Nuages Ciel dégagé
indice de chaleur 93 ° F
Point de rosée 57 ° F
Humidité 29%
Précipitations 0.00 pouce
Profondeur de la couche neigeuse Non disponible.
UV 9 sur 12
Pollen 11.20 sur 12
Qualité de l'air Non disponible.
Flu Activity Non disponible.
METAR KSLN 041753Z 17019G28KT 10SM CLR 34/19 A2991 RMK AO2 PK WND 19031/1712 SLP111 T03390189 10339 20239 50000
Pression 29.86 pouce
Visibilité 10.0 Miles terrestres
Nuages Ciel dégagé
indice de chaleur 93 ° F
Point de rosée 57 ° F
Humidité 29%
Précipitations 0.00 pouce
Profondeur de la couche neigeuse Non disponible.
UV 9 sur 12
Pollen 11.20 sur 12
Qualité de l'air Non disponible.
Flu Activity Non disponible.
METAR KSLN 041753Z 17019G28KT 10SM CLR 34/19 A2991 RMK AO2 PK WND 19031/1712 SLP111 T03390189 10339 20239 50000

10-Day Weather Forecast

×

Almanac

Astronomie

Sep. 04, 2015 Lever Coucher
Temps réel
Crépuscule civil
Crépuscule nautique
Crépuscule astronomique
Lune
Durée de lumière visible
Longueur du jour
Tomorrow will be .
, % of the Moon is Illuminated

Extrêmes aujourd'hui

State Highs State Lows

Community

WunderPhotos

Upload Photos

1,852,262 Photos téléchargées !

WunderBlogs® & News

Nearby

Qualité de l'air

  Qualité de l'air Indice de la qualité de l'air Polluant
Not available.

Épaisseur de neige

Station Depth Altitude

Activité sismique

Ville Distance Mag. Time & Date
Minimum magnitude displayed is 2.5.

Températures des eaux côtières

Lieu Température

Stations

Stations météo à proximité

Emplacement de la station Température Refroidissement éolien Point de rosée Humidité Vent Precip. Alt. Mise à jour Type